sensor_id;sensor_type;location;lat;lon;timestamp;P1;durP1;ratioP1;P2;durP2;ratioP2
37299;SDS011;23184;51.902;12.836;2023-07-29T00:01:04;7.82;;;5.95;;
37299;SDS011;23184;51.902;12.836;2023-07-29T00:03:30;6.97;;;5.80;;
37299;SDS011;23184;51.902;12.836;2023-07-29T00:05:57;7.68;;;5.47;;
37299;SDS011;23184;51.902;12.836;2023-07-29T00:08:22;6.07;;;5.47;;
37299;SDS011;23184;51.902;12.836;2023-07-29T00:10:48;6.47;;;5.72;;
37299;SDS011;23184;51.902;12.836;2023-07-29T00:13:13;8.75;;;7.28;;
37299;SDS011;23184;51.902;12.836;2023-07-29T00:15:39;9.30;;;6.95;;
37299;SDS011;23184;51.902;12.836;2023-07-29T00:18:04;8.93;;;7.90;;
37299;SDS011;23184;51.902;12.836;2023-07-29T00:20:30;9.15;;;7.55;;
37299;SDS011;23184;51.902;12.836;2023-07-29T00:22:55;9.82;;;7.60;;
37299;SDS011;23184;51.902;12.836;2023-07-29T00:25:23;8.43;;;6.63;;
37299;SDS011;23184;51.902;12.836;2023-07-29T00:27:48;8.68;;;6.30;;
37299;SDS011;23184;51.902;12.836;2023-07-29T00:30:14;7.18;;;6.47;;
37299;SDS011;23184;51.902;12.836;2023-07-29T00:32:39;8.48;;;7.57;;
37299;SDS011;23184;51.902;12.836;2023-07-29T00:35:05;9.23;;;7.25;;
37299;SDS011;23184;51.902;12.836;2023-07-29T00:37:31;8.55;;;7.30;;
37299;SDS011;23184;51.902;12.836;2023-07-29T00:39:57;10.57;;;8.07;;
37299;SDS011;23184;51.902;12.836;2023-07-29T00:42:23;7.50;;;6.65;;
37299;SDS011;23184;51.902;12.836;2023-07-29T00:44:49;7.20;;;6.32;;
37299;SDS011;23184;51.902;12.836;2023-07-29T00:47:14;12.00;;;7.90;;
37299;SDS011;23184;51.902;12.836;2023-07-29T00:49:41;9.57;;;8.00;;
37299;SDS011;23184;51.902;12.836;2023-07-29T00:52:08;9.52;;;8.52;;
37299;SDS011;23184;51.902;12.836;2023-07-29T00:54:37;9.50;;;7.82;;
37299;SDS011;23184;51.902;12.836;2023-07-29T00:57:03;12.80;;;8.82;;
37299;SDS011;23184;51.902;12.836;2023-07-29T00:59:29;9.25;;;7.45;;
37299;SDS011;23184;51.902;12.836;2023-07-29T01:01:56;9.30;;;8.30;;
37299;SDS011;23184;51.902;12.836;2023-07-29T01:04:22;9.98;;;8.20;;
37299;SDS011;23184;51.902;12.836;2023-07-29T01:07:31;15.13;;;8.52;;
37299;SDS011;23184;51.902;12.836;2023-07-29T01:12:24;12.63;;;8.60;;
37299;SDS011;23184;51.902;12.836;2023-07-29T01:15:04;10.65;;;8.45;;
37299;SDS011;23184;51.902;12.836;2023-07-29T01:17:33;10.20;;;8.93;;
37299;SDS011;23184;51.902;12.836;2023-07-29T01:22:36;10.43;;;8.43;;
37299;SDS011;23184;51.902;12.836;2023-07-29T01:25:03;8.98;;;7.93;;
37299;SDS011;23184;51.902;12.836;2023-07-29T01:27:29;10.38;;;8.27;;
37299;SDS011;23184;51.902;12.836;2023-07-29T01:29:55;10.60;;;8.38;;
37299;SDS011;23184;51.902;12.836;2023-07-29T01:35:20;11.13;;;8.90;;
37299;SDS011;23184;51.902;12.836;2023-07-29T01:37:48;9.18;;;8.18;;
37299;SDS011;23184;51.902;12.836;2023-07-29T01:40:17;10.50;;;9.07;;
37299;SDS011;23184;51.902;12.836;2023-07-29T01:42:44;15.02;;;9.52;;
37299;SDS011;23184;51.902;12.836;2023-07-29T01:45:11;11.48;;;9.65;;
37299;SDS011;23184;51.902;12.836;2023-07-29T01:47:36;10.68;;;8.27;;
37299;SDS011;23184;51.902;12.836;2023-07-29T01:50:05;10.60;;;8.35;;
37299;SDS011;23184;51.902;12.836;2023-07-29T01:52:31;12.82;;;8.63;;
37299;SDS011;23184;51.902;12.836;2023-07-29T01:54:57;11.77;;;9.20;;
37299;SDS011;23184;51.902;12.836;2023-07-29T01:57:22;14.65;;;8.68;;
37299;SDS011;23184;51.902;12.836;2023-07-29T01:59:48;10.13;;;8.80;;
37299;SDS011;23184;51.902;12.836;2023-07-29T02:02:13;11.07;;;9.27;;
37299;SDS011;23184;51.902;12.836;2023-07-29T02:04:39;10.88;;;9.50;;
37299;SDS011;23184;51.902;12.836;2023-07-29T02:07:04;13.57;;;9.60;;
37299;SDS011;23184;51.902;12.836;2023-07-29T02:09:30;11.48;;;9.50;;
37299;SDS011;23184;51.902;12.836;2023-07-29T02:11:56;14.32;;;9.85;;
37299;SDS011;23184;51.902;12.836;2023-07-29T02:14:22;13.55;;;8.70;;
37299;SDS011;23184;51.902;12.836;2023-07-29T02:16:48;11.07;;;8.98;;
37299;SDS011;23184;51.902;12.836;2023-07-29T02:19:14;13.75;;;8.75;;
37299;SDS011;23184;51.902;12.836;2023-07-29T02:21:40;12.38;;;8.38;;
37299;SDS011;23184;51.902;12.836;2023-07-29T02:24:05;9.45;;;8.35;;
37299;SDS011;23184;51.902;12.836;2023-07-29T02:26:31;10.07;;;8.90;;
37299;SDS011;23184;51.902;12.836;2023-07-29T02:28:56;9.98;;;7.95;;
37299;SDS011;23184;51.902;12.836;2023-07-29T02:31:22;11.88;;;7.80;;
37299;SDS011;23184;51.902;12.836;2023-07-29T02:33:49;8.18;;;7.25;;
37299;SDS011;23184;51.902;12.836;2023-07-29T02:36:15;9.02;;;7.60;;
37299;SDS011;23184;51.902;12.836;2023-07-29T02:38:41;8.50;;;6.93;;
37299;SDS011;23184;51.902;12.836;2023-07-29T02:41:08;9.80;;;6.80;;
37299;SDS011;23184;51.902;12.836;2023-07-29T02:43:35;9.98;;;6.82;;
37299;SDS011;23184;51.902;12.836;2023-07-29T02:46:01;9.05;;;6.50;;
37299;SDS011;23184;51.902;12.836;2023-07-29T02:48:27;8.02;;;6.53;;
37299;SDS011;23184;51.902;12.836;2023-07-29T02:50:53;9.20;;;5.93;;
37299;SDS011;23184;51.902;12.836;2023-07-29T02:53:19;6.22;;;5.50;;
37299;SDS011;23184;51.902;12.836;2023-07-29T02:55:45;7.38;;;5.28;;
37299;SDS011;23184;51.902;12.836;2023-07-29T02:58:10;6.68;;;5.22;;
37299;SDS011;23184;51.902;12.836;2023-07-29T03:00:36;10.23;;;5.18;;
37299;SDS011;23184;51.902;12.836;2023-07-29T03:03:02;5.63;;;4.90;;
37299;SDS011;23184;51.902;12.836;2023-07-29T03:05:27;5.78;;;4.50;;
37299;SDS011;23184;51.902;12.836;2023-07-29T03:07:53;9.90;;;4.75;;
37299;SDS011;23184;51.902;12.836;2023-07-29T03:10:18;5.63;;;4.88;;
37299;SDS011;23184;51.902;12.836;2023-07-29T03:12:45;6.03;;;4.60;;
37299;SDS011;23184;51.902;12.836;2023-07-29T03:15:11;6.90;;;4.65;;
37299;SDS011;23184;51.902;12.836;2023-07-29T03:17:37;6.80;;;4.45;;
37299;SDS011;23184;51.902;12.836;2023-07-29T03:20:02;6.25;;;4.82;;
37299;SDS011;23184;51.902;12.836;2023-07-29T03:22:28;8.02;;;4.75;;
37299;SDS011;23184;51.902;12.836;2023-07-29T03:24:54;8.48;;;4.80;;
37299;SDS011;23184;51.902;12.836;2023-07-29T03:27:19;6.43;;;4.68;;
37299;SDS011;23184;51.902;12.836;2023-07-29T03:29:45;6.85;;;5.30;;
37299;SDS011;23184;51.902;12.836;2023-07-29T03:32:11;8.02;;;5.43;;
37299;SDS011;23184;51.902;12.836;2023-07-29T03:34:37;6.45;;;5.00;;
37299;SDS011;23184;51.902;12.836;2023-07-29T03:37:03;5.22;;;4.72;;
37299;SDS011;23184;51.902;12.836;2023-07-29T03:39:29;7.78;;;5.22;;
37299;SDS011;23184;51.902;12.836;2023-07-29T03:41:54;5.57;;;4.65;;
37299;SDS011;23184;51.902;12.836;2023-07-29T03:44:20;6.57;;;5.18;;
37299;SDS011;23184;51.902;12.836;2023-07-29T03:46:45;6.50;;;4.75;;
37299;SDS011;23184;51.902;12.836;2023-07-29T03:49:11;7.63;;;4.65;;
37299;SDS011;23184;51.902;12.836;2023-07-29T03:51:36;6.65;;;4.97;;
37299;SDS011;23184;51.902;12.836;2023-07-29T03:54:02;6.30;;;5.22;;
37299;SDS011;23184;51.902;12.836;2023-07-29T03:56:28;7.82;;;4.35;;
37299;SDS011;23184;51.902;12.836;2023-07-29T03:58:53;5.82;;;4.32;;
37299;SDS011;23184;51.902;12.836;2023-07-29T04:01:26;4.40;;;4.00;;
37299;SDS011;23184;51.902;12.836;2023-07-29T04:03:52;5.68;;;4.40;;
37299;SDS011;23184;51.902;12.836;2023-07-29T04:06:17;5.35;;;4.57;;
37299;SDS011;23184;51.902;12.836;2023-07-29T04:08:43;5.43;;;4.72;;
37299;SDS011;23184;51.902;12.836;2023-07-29T04:11:08;5.22;;;4.70;;
37299;SDS011;23184;51.902;12.836;2023-07-29T04:13:34;6.68;;;5.20;;
37299;SDS011;23184;51.902;12.836;2023-07-29T04:16:00;6.75;;;5.25;;
37299;SDS011;23184;51.902;12.836;2023-07-29T04:18:25;6.45;;;4.80;;
37299;SDS011;23184;51.902;12.836;2023-07-29T04:20:51;5.40;;;4.30;;
37299;SDS011;23184;51.902;12.836;2023-07-29T04:23:17;5.13;;;4.40;;
37299;SDS011;23184;51.902;12.836;2023-07-29T04:25:42;4.38;;;3.97;;
37299;SDS011;23184;51.902;12.836;2023-07-29T04:28:08;4.93;;;3.47;;
37299;SDS011;23184;51.902;12.836;2023-07-29T04:30:33;4.45;;;4.05;;
37299;SDS011;23184;51.902;12.836;2023-07-29T04:32:59;4.70;;;3.90;;
37299;SDS011;23184;51.902;12.836;2023-07-29T04:35:24;5.05;;;3.53;;
37299;SDS011;23184;51.902;12.836;2023-07-29T04:37:50;4.60;;;3.83;;
37299;SDS011;23184;51.902;12.836;2023-07-29T04:40:15;4.40;;;3.72;;
37299;SDS011;23184;51.902;12.836;2023-07-29T04:42:41;5.03;;;3.65;;
37299;SDS011;23184;51.902;12.836;2023-07-29T04:45:06;4.07;;;3.53;;
37299;SDS011;23184;51.902;12.836;2023-07-29T04:47:32;4.55;;;3.67;;
37299;SDS011;23184;51.902;12.836;2023-07-29T04:49:57;4.15;;;3.53;;
37299;SDS011;23184;51.902;12.836;2023-07-29T04:52:23;3.90;;;3.50;;
37299;SDS011;23184;51.902;12.836;2023-07-29T04:54:48;4.90;;;3.55;;
37299;SDS011;23184;51.902;12.836;2023-07-29T04:57:14;5.75;;;3.00;;
37299;SDS011;23184;51.902;12.836;2023-07-29T04:59:40;3.88;;;3.25;;
37299;SDS011;23184;51.902;12.836;2023-07-29T05:02:05;3.70;;;3.40;;
37299;SDS011;23184;51.902;12.836;2023-07-29T05:04:31;3.47;;;3.17;;
37299;SDS011;23184;51.902;12.836;2023-07-29T05:06:56;2.95;;;2.65;;
37299;SDS011;23184;51.902;12.836;2023-07-29T05:09:22;3.25;;;2.67;;
37299;SDS011;23184;51.902;12.836;2023-07-29T05:11:47;3.67;;;3.25;;
37299;SDS011;23184;51.902;12.836;2023-07-29T05:14:14;4.57;;;3.03;;
37299;SDS011;23184;51.902;12.836;2023-07-29T05:16:40;4.22;;;3.00;;
37299;SDS011;23184;51.902;12.836;2023-07-29T05:19:06;3.35;;;2.88;;
37299;SDS011;23184;51.902;12.836;2023-07-29T05:21:32;4.47;;;2.92;;
37299;SDS011;23184;51.902;12.836;2023-07-29T05:23:57;3.15;;;2.85;;
37299;SDS011;23184;51.902;12.836;2023-07-29T05:26:23;6.43;;;2.85;;
37299;SDS011;23184;51.902;12.836;2023-07-29T05:28:48;3.22;;;2.92;;
37299;SDS011;23184;51.902;12.836;2023-07-29T05:31:14;4.30;;;3.63;;
37299;SDS011;23184;51.902;12.836;2023-07-29T05:33:39;3.53;;;3.20;;
37299;SDS011;23184;51.902;12.836;2023-07-29T05:36:05;3.67;;;3.38;;
37299;SDS011;23184;51.902;12.836;2023-07-29T05:38:31;6.57;;;3.03;;
37299;SDS011;23184;51.902;12.836;2023-07-29T05:40:56;5.03;;;2.83;;
37299;SDS011;23184;51.902;12.836;2023-07-29T05:43:23;5.45;;;2.80;;
37299;SDS011;23184;51.902;12.836;2023-07-29T05:45:49;4.80;;;2.95;;
37299;SDS011;23184;51.902;12.836;2023-07-29T05:48:15;7.88;;;2.50;;
37299;SDS011;23184;51.902;12.836;2023-07-29T05:50:41;3.35;;;2.45;;
37299;SDS011;23184;51.902;12.836;2023-07-29T05:53:07;2.85;;;2.55;;
37299;SDS011;23184;51.902;12.836;2023-07-29T05:55:33;4.60;;;2.60;;
37299;SDS011;23184;51.902;12.836;2023-07-29T05:57:58;5.47;;;2.40;;
37299;SDS011;23184;51.902;12.836;2023-07-29T06:00:24;4.65;;;1.98;;
37299;SDS011;23184;51.902;12.836;2023-07-29T06:02:49;5.10;;;1.90;;
37299;SDS011;23184;51.902;12.836;2023-07-29T06:05:15;3.35;;;2.00;;
37299;SDS011;23184;51.902;12.836;2023-07-29T06:07:40;4.55;;;1.73;;
37299;SDS011;23184;51.902;12.836;2023-07-29T06:10:09;2.67;;;1.40;;
37299;SDS011;23184;51.902;12.836;2023-07-29T06:12:42;6.87;;;1.90;;
37299;SDS011;23184;51.902;12.836;2023-07-29T06:15:08;4.90;;;1.88;;
37299;SDS011;23184;51.902;12.836;2023-07-29T06:17:34;4.63;;;1.45;;
37299;SDS011;23184;51.902;12.836;2023-07-29T06:19:59;3.80;;;1.50;;
37299;SDS011;23184;51.902;12.836;2023-07-29T06:22:25;3.10;;;1.70;;
37299;SDS011;23184;51.902;12.836;2023-07-29T06:24:50;4.10;;;1.45;;
37299;SDS011;23184;51.902;12.836;2023-07-29T06:27:16;4.05;;;1.70;;
37299;SDS011;23184;51.902;12.836;2023-07-29T06:29:41;2.72;;;1.98;;
37299;SDS011;23184;51.902;12.836;2023-07-29T06:32:07;3.85;;;1.55;;
37299;SDS011;23184;51.902;12.836;2023-07-29T06:34:32;2.85;;;1.65;;
37299;SDS011;23184;51.902;12.836;2023-07-29T06:36:58;5.93;;;1.70;;
37299;SDS011;23184;51.902;12.836;2023-07-29T06:39:23;1.88;;;1.55;;
37299;SDS011;23184;51.902;12.836;2023-07-29T06:41:49;5.53;;;1.83;;
37299;SDS011;23184;51.902;12.836;2023-07-29T06:44:15;2.00;;;1.50;;
37299;SDS011;23184;51.902;12.836;2023-07-29T06:46:40;4.18;;;1.48;;
37299;SDS011;23184;51.902;12.836;2023-07-29T06:49:06;3.85;;;1.65;;
37299;SDS011;23184;51.902;12.836;2023-07-29T06:51:31;1.60;;;1.45;;
37299;SDS011;23184;51.902;12.836;2023-07-29T06:53:59;2.63;;;1.50;;
37299;SDS011;23184;51.902;12.836;2023-07-29T06:56:25;3.85;;;1.58;;
37299;SDS011;23184;51.902;12.836;2023-07-29T06:58:50;1.52;;;1.20;;
37299;SDS011;23184;51.902;12.836;2023-07-29T07:01:16;2.38;;;1.35;;
37299;SDS011;23184;51.902;12.836;2023-07-29T07:03:42;3.67;;;1.85;;
37299;SDS011;23184;51.902;12.836;2023-07-29T07:06:07;2.30;;;1.50;;
37299;SDS011;23184;51.902;12.836;2023-07-29T07:08:33;2.25;;;1.58;;
37299;SDS011;23184;51.902;12.836;2023-07-29T07:10:58;2.08;;;1.30;;
37299;SDS011;23184;51.902;12.836;2023-07-29T07:13:24;4.40;;;1.50;;
37299;SDS011;23184;51.902;12.836;2023-07-29T07:15:49;1.45;;;1.35;;
37299;SDS011;23184;51.902;12.836;2023-07-29T07:18:15;2.55;;;1.30;;
37299;SDS011;23184;51.902;12.836;2023-07-29T07:20:40;2.25;;;1.30;;
37299;SDS011;23184;51.902;12.836;2023-07-29T07:23:06;3.92;;;1.50;;
37299;SDS011;23184;51.902;12.836;2023-07-29T07:25:36;1.77;;;1.60;;
37299;SDS011;23184;51.902;12.836;2023-07-29T07:28:01;5.10;;;1.40;;
37299;SDS011;23184;51.902;12.836;2023-07-29T07:30:27;1.63;;;1.50;;
37299;SDS011;23184;51.902;12.836;2023-07-29T07:32:52;1.70;;;1.52;;
37299;SDS011;23184;51.902;12.836;2023-07-29T07:35:18;6.07;;;1.63;;
37299;SDS011;23184;51.902;12.836;2023-07-29T07:37:44;2.85;;;1.55;;
37299;SDS011;23184;51.902;12.836;2023-07-29T07:40:09;2.92;;;1.48;;
37299;SDS011;23184;51.902;12.836;2023-07-29T07:42:36;2.10;;;1.40;;
37299;SDS011;23184;51.902;12.836;2023-07-29T07:45:01;2.47;;;1.30;;
37299;SDS011;23184;51.902;12.836;2023-07-29T07:47:27;2.53;;;1.40;;
37299;SDS011;23184;51.902;12.836;2023-07-29T07:49:52;2.97;;;1.35;;
37299;SDS011;23184;51.902;12.836;2023-07-29T07:52:18;1.63;;;1.33;;
37299;SDS011;23184;51.902;12.836;2023-07-29T07:54:43;1.70;;;1.30;;
37299;SDS011;23184;51.902;12.836;2023-07-29T07:57:09;1.70;;;1.48;;
37299;SDS011;23184;51.902;12.836;2023-07-29T07:59:34;2.63;;;1.40;;
37299;SDS011;23184;51.902;12.836;2023-07-29T08:02:00;2.22;;;1.50;;
37299;SDS011;23184;51.902;12.836;2023-07-29T08:04:25;4.18;;;1.30;;
37299;SDS011;23184;51.902;12.836;2023-07-29T08:06:51;1.63;;;1.50;;
37299;SDS011;23184;51.902;12.836;2023-07-29T08:09:16;4.65;;;1.52;;
37299;SDS011;23184;51.902;12.836;2023-07-29T08:11:42;1.77;;;1.50;;
37299;SDS011;23184;51.902;12.836;2023-07-29T08:14:07;3.60;;;1.23;;
37299;SDS011;23184;51.902;12.836;2023-07-29T08:16:33;1.50;;;1.30;;
37299;SDS011;23184;51.902;12.836;2023-07-29T08:18:58;3.60;;;1.30;;
37299;SDS011;23184;51.902;12.836;2023-07-29T08:21:24;2.30;;;1.38;;
37299;SDS011;23184;51.902;12.836;2023-07-29T08:23:51;2.88;;;1.20;;
37299;SDS011;23184;51.902;12.836;2023-07-29T08:26:16;1.40;;;1.30;;
37299;SDS011;23184;51.902;12.836;2023-07-29T08:28:42;1.15;;;1.10;;
37299;SDS011;23184;51.902;12.836;2023-07-29T08:31:08;5.88;;;1.35;;
37299;SDS011;23184;51.902;12.836;2023-07-29T08:33:33;4.10;;;1.40;;
37299;SDS011;23184;51.902;12.836;2023-07-29T08:35:59;2.03;;;1.48;;
37299;SDS011;23184;51.902;12.836;2023-07-29T08:38:25;2.42;;;1.40;;
37299;SDS011;23184;51.902;12.836;2023-07-29T08:40:57;2.03;;;1.27;;
37299;SDS011;23184;51.902;12.836;2023-07-29T08:43:35;25.48;;;2.58;;
37299;SDS011;23184;51.902;12.836;2023-07-29T08:46:03;3.88;;;2.00;;
37299;SDS011;23184;51.902;12.836;2023-07-29T08:48:41;1.77;;;1.40;;
37299;SDS011;23184;51.902;12.836;2023-07-29T08:51:08;1.48;;;1.38;;
37299;SDS011;23184;51.902;12.836;2023-07-29T08:53:34;1.52;;;1.30;;
37299;SDS011;23184;51.902;12.836;2023-07-29T08:56:01;2.20;;;1.50;;
37299;SDS011;23184;51.902;12.836;2023-07-29T08:58:27;1.83;;;1.20;;
37299;SDS011;23184;51.902;12.836;2023-07-29T09:00:53;4.97;;;1.27;;
37299;SDS011;23184;51.902;12.836;2023-07-29T09:03:19;5.72;;;1.35;;
37299;SDS011;23184;51.902;12.836;2023-07-29T09:05:46;3.35;;;1.38;;
37299;SDS011;23184;51.902;12.836;2023-07-29T09:08:12;1.60;;;1.40;;
37299;SDS011;23184;51.902;12.836;2023-07-29T09:10:38;2.97;;;1.30;;
37299;SDS011;23184;51.902;12.836;2023-07-29T09:13:04;2.13;;;1.10;;
37299;SDS011;23184;51.902;12.836;2023-07-29T09:15:31;2.90;;;1.35;;
37299;SDS011;23184;51.902;12.836;2023-07-29T09:17:58;1.30;;;1.20;;
37299;SDS011;23184;51.902;12.836;2023-07-29T09:20:25;2.00;;;1.35;;
37299;SDS011;23184;51.902;12.836;2023-07-29T09:22:51;1.15;;;1.13;;
37299;SDS011;23184;51.902;12.836;2023-07-29T09:25:26;2.78;;;1.23;;
37299;SDS011;23184;51.902;12.836;2023-07-29T09:27:53;2.00;;;1.20;;
37299;SDS011;23184;51.902;12.836;2023-07-29T09:30:24;3.72;;;1.40;;
37299;SDS011;23184;51.902;12.836;2023-07-29T09:32:56;2.35;;;1.20;;
37299;SDS011;23184;51.902;12.836;2023-07-29T09:35:22;3.10;;;2.20;;
37299;SDS011;23184;51.902;12.836;2023-07-29T09:37:50;32.20;;;2.40;;
37299;SDS011;23184;51.902;12.836;2023-07-29T09:40:17;35.75;;;2.97;;
37299;SDS011;23184;51.902;12.836;2023-07-29T09:42:49;2.40;;;1.35;;
37299;SDS011;23184;51.902;12.836;2023-07-29T09:45:25;1.80;;;1.30;;
37299;SDS011;23184;51.902;12.836;2023-07-29T09:47:52;4.50;;;1.83;;
37299;SDS011;23184;51.902;12.836;2023-07-29T09:50:20;6.00;;;1.30;;
37299;SDS011;23184;51.902;12.836;2023-07-29T09:52:52;3.28;;;1.10;;
37299;SDS011;23184;51.902;12.836;2023-07-29T09:55:20;1.48;;;1.02;;
37299;SDS011;23184;51.902;12.836;2023-07-29T09:57:48;3.90;;;1.00;;
37299;SDS011;23184;51.902;12.836;2023-07-29T10:00:29;8.43;;;1.00;;
37299;SDS011;23184;51.902;12.836;2023-07-29T10:02:55;4.68;;;1.08;;
37299;SDS011;23184;51.902;12.836;2023-07-29T10:05:22;2.30;;;0.95;;
37299;SDS011;23184;51.902;12.836;2023-07-29T10:07:50;1.58;;;1.00;;
37299;SDS011;23184;51.902;12.836;2023-07-29T10:10:16;1.73;;;1.15;;
37299;SDS011;23184;51.902;12.836;2023-07-29T10:12:42;4.72;;;1.58;;
37299;SDS011;23184;51.902;12.836;2023-07-29T10:15:08;2.78;;;1.23;;
37299;SDS011;23184;51.902;12.836;2023-07-29T10:17:35;2.50;;;1.30;;
37299;SDS011;23184;51.902;12.836;2023-07-29T10:20:04;1.17;;;1.05;;
37299;SDS011;23184;51.902;12.836;2023-07-29T10:22:41;1.33;;;1.23;;
37299;SDS011;23184;51.902;12.836;2023-07-29T10:25:09;2.28;;;1.20;;
37299;SDS011;23184;51.902;12.836;2023-07-29T10:27:51;1.63;;;1.20;;
37299;SDS011;23184;51.902;12.836;2023-07-29T10:30:18;1.33;;;1.23;;
37299;SDS011;23184;51.902;12.836;2023-07-29T10:32:44;4.13;;;1.25;;
37299;SDS011;23184;51.902;12.836;2023-07-29T10:35:11;1.58;;;1.30;;
37299;SDS011;23184;51.902;12.836;2023-07-29T10:37:38;1.55;;;1.15;;
37299;SDS011;23184;51.902;12.836;2023-07-29T10:40:08;3.53;;;1.65;;
37299;SDS011;23184;51.902;12.836;2023-07-29T10:42:35;1.35;;;1.25;;
37299;SDS011;23184;51.902;12.836;2023-07-29T10:45:19;1.20;;;1.10;;
37299;SDS011;23184;51.902;12.836;2023-07-29T10:47:46;2.10;;;1.38;;
37299;SDS011;23184;51.902;12.836;2023-07-29T10:50:19;1.90;;;1.27;;
37299;SDS011;23184;51.902;12.836;2023-07-29T10:52:49;1.85;;;1.42;;
37299;SDS011;23184;51.902;12.836;2023-07-29T10:55:26;5.18;;;1.50;;
37299;SDS011;23184;51.902;12.836;2023-07-29T10:58:11;4.20;;;1.50;;
37299;SDS011;23184;51.902;12.836;2023-07-29T11:00:39;1.85;;;1.52;;
37299;SDS011;23184;51.902;12.836;2023-07-29T11:03:07;2.65;;;1.60;;
37299;SDS011;23184;51.902;12.836;2023-07-29T11:05:43;2.10;;;1.88;;
37299;SDS011;23184;51.902;12.836;2023-07-29T11:08:16;2.10;;;1.73;;
37299;SDS011;23184;51.902;12.836;2023-07-29T11:10:43;1.77;;;1.58;;
37299;SDS011;23184;51.902;12.836;2023-07-29T11:13:09;1.40;;;1.30;;
37299;SDS011;23184;51.902;12.836;2023-07-29T11:15:36;6.80;;;1.70;;
37299;SDS011;23184;51.902;12.836;2023-07-29T11:18:04;23.48;;;5.55;;
37299;SDS011;23184;51.902;12.836;2023-07-29T11:20:32;25.92;;;5.00;;
37299;SDS011;23184;51.902;12.836;2023-07-29T11:22:59;14.63;;;3.13;;
37299;SDS011;23184;51.902;12.836;2023-07-29T11:25:26;7.18;;;1.50;;
37299;SDS011;23184;51.902;12.836;2023-07-29T11:27:54;6.93;;;2.25;;
37299;SDS011;23184;51.902;12.836;2023-07-29T11:30:21;7.22;;;1.75;;
37299;SDS011;23184;51.902;12.836;2023-07-29T11:32:54;4.90;;;1.47;;
37299;SDS011;23184;51.902;12.836;2023-07-29T11:35:20;6.03;;;2.00;;
37299;SDS011;23184;51.902;12.836;2023-07-29T11:37:47;4.43;;;1.75;;
37299;SDS011;23184;51.902;12.836;2023-07-29T11:40:15;4.53;;;1.85;;
37299;SDS011;23184;51.902;12.836;2023-07-29T11:42:41;7.03;;;1.73;;
37299;SDS011;23184;51.902;12.836;2023-07-29T11:45:07;7.20;;;2.00;;
37299;SDS011;23184;51.902;12.836;2023-07-29T11:47:33;6.00;;;1.98;;
37299;SDS011;23184;51.902;12.836;2023-07-29T11:50:05;5.00;;;1.95;;
37299;SDS011;23184;51.902;12.836;2023-07-29T11:52:34;7.82;;;2.38;;
37299;SDS011;23184;51.902;12.836;2023-07-29T11:55:01;6.85;;;1.33;;
37299;SDS011;23184;51.902;12.836;2023-07-29T11:57:28;3.28;;;1.60;;
37299;SDS011;23184;51.902;12.836;2023-07-29T11:59:54;9.10;;;1.70;;
37299;SDS011;23184;51.902;12.836;2023-07-29T12:02:20;4.25;;;1.67;;
37299;SDS011;23184;51.902;12.836;2023-07-29T12:04:47;6.30;;;1.38;;
37299;SDS011;23184;51.902;12.836;2023-07-29T12:07:14;3.50;;;1.20;;
37299;SDS011;23184;51.902;12.836;2023-07-29T12:09:40;5.68;;;1.30;;
37299;SDS011;23184;51.902;12.836;2023-07-29T12:12:07;2.30;;;1.00;;
37299;SDS011;23184;51.902;12.836;2023-07-29T12:14:33;4.97;;;1.58;;
37299;SDS011;23184;51.902;12.836;2023-07-29T12:16:59;4.10;;;1.00;;
37299;SDS011;23184;51.902;12.836;2023-07-29T12:19:31;1.95;;;0.90;;
37299;SDS011;23184;51.902;12.836;2023-07-29T12:22:03;4.43;;;1.30;;
37299;SDS011;23184;51.902;12.836;2023-07-29T12:24:32;2.10;;;1.50;;
37299;SDS011;23184;51.902;12.836;2023-07-29T12:26:58;4.00;;;1.17;;
37299;SDS011;23184;51.902;12.836;2023-07-29T12:29:24;2.58;;;1.27;;
37299;SDS011;23184;51.902;12.836;2023-07-29T12:32:00;2.35;;;1.30;;
37299;SDS011;23184;51.902;12.836;2023-07-29T12:34:27;7.28;;;1.63;;
37299;SDS011;23184;51.902;12.836;2023-07-29T12:36:54;1.60;;;0.90;;
37299;SDS011;23184;51.902;12.836;2023-07-29T12:39:31;2.97;;;1.20;;
37299;SDS011;23184;51.902;12.836;2023-07-29T12:41:59;3.28;;;1.08;;
37299;SDS011;23184;51.902;12.836;2023-07-29T12:44:29;2.80;;;1.10;;
37299;SDS011;23184;51.902;12.836;2023-07-29T12:47:01;1.13;;;0.93;;
37299;SDS011;23184;51.902;12.836;2023-07-29T12:49:28;1.70;;;1.10;;
37299;SDS011;23184;51.902;12.836;2023-07-29T12:51:54;5.32;;;1.45;;
37299;SDS011;23184;51.902;12.836;2023-07-29T12:54:23;3.47;;;1.52;;
37299;SDS011;23184;51.902;12.836;2023-07-29T12:56:49;2.67;;;1.50;;
37299;SDS011;23184;51.902;12.836;2023-07-29T12:59:14;2.25;;;1.20;;
37299;SDS011;23184;51.902;12.836;2023-07-29T13:01:40;2.75;;;1.50;;
37299;SDS011;23184;51.902;12.836;2023-07-29T13:04:06;2.58;;;1.40;;
37299;SDS011;23184;51.902;12.836;2023-07-29T13:06:31;6.53;;;1.65;;
37299;SDS011;23184;51.902;12.836;2023-07-29T13:08:57;2.78;;;1.42;;
37299;SDS011;23184;51.902;12.836;2023-07-29T13:11:22;4.95;;;1.58;;
37299;SDS011;23184;51.902;12.836;2023-07-29T13:13:48;4.28;;;1.20;;
37299;SDS011;23184;51.902;12.836;2023-07-29T13:16:13;1.88;;;1.40;;
37299;SDS011;23184;51.902;12.836;2023-07-29T13:18:39;2.75;;;1.17;;
37299;SDS011;23184;51.902;12.836;2023-07-29T13:21:05;4.00;;;1.50;;
37299;SDS011;23184;51.902;12.836;2023-07-29T13:23:31;2.60;;;1.02;;
37299;SDS011;23184;51.902;12.836;2023-07-29T13:25:57;3.58;;;0.93;;
37299;SDS011;23184;51.902;12.836;2023-07-29T13:28:22;4.63;;;1.08;;
37299;SDS011;23184;51.902;12.836;2023-07-29T13:30:48;2.70;;;1.13;;
37299;SDS011;23184;51.902;12.836;2023-07-29T13:33:14;3.08;;;0.98;;
37299;SDS011;23184;51.902;12.836;2023-07-29T13:35:40;2.38;;;1.10;;
37299;SDS011;23184;51.902;12.836;2023-07-29T13:38:05;2.45;;;1.13;;
37299;SDS011;23184;51.902;12.836;2023-07-29T13:40:31;3.75;;;1.10;;
37299;SDS011;23184;51.902;12.836;2023-07-29T13:42:56;3.95;;;1.10;;
37299;SDS011;23184;51.902;12.836;2023-07-29T13:45:22;3.70;;;1.20;;
37299;SDS011;23184;51.902;12.836;2023-07-29T13:47:48;5.10;;;1.50;;
37299;SDS011;23184;51.902;12.836;2023-07-29T13:50:14;2.60;;;1.38;;
37299;SDS011;23184;51.902;12.836;2023-07-29T13:52:40;3.08;;;1.10;;
37299;SDS011;23184;51.902;12.836;2023-07-29T13:55:05;1.50;;;1.40;;
37299;SDS011;23184;51.902;12.836;2023-07-29T13:57:31;2.05;;;1.30;;
37299;SDS011;23184;51.902;12.836;2023-07-29T13:59:57;2.63;;;1.40;;
37299;SDS011;23184;51.902;12.836;2023-07-29T14:02:23;3.97;;;1.50;;
37299;SDS011;23184;51.902;12.836;2023-07-29T14:04:51;4.45;;;2.13;;
37299;SDS011;23184;51.902;12.836;2023-07-29T14:07:17;2.25;;;1.52;;
37299;SDS011;23184;51.902;12.836;2023-07-29T14:09:42;2.15;;;1.48;;
37299;SDS011;23184;51.902;12.836;2023-07-29T14:12:08;7.47;;;1.40;;
37299;SDS011;23184;51.902;12.836;2023-07-29T14:14:39;1.27;;;1.17;;
37299;SDS011;23184;51.902;12.836;2023-07-29T14:17:05;2.70;;;1.15;;
37299;SDS011;23184;51.902;12.836;2023-07-29T14:19:31;4.82;;;1.40;;
37299;SDS011;23184;51.902;12.836;2023-07-29T14:21:56;2.67;;;1.50;;
37299;SDS011;23184;51.902;12.836;2023-07-29T14:24:22;3.00;;;1.40;;
37299;SDS011;23184;51.902;12.836;2023-07-29T14:26:48;2.63;;;1.60;;
37299;SDS011;23184;51.902;12.836;2023-07-29T14:29:14;5.65;;;1.63;;
37299;SDS011;23184;51.902;12.836;2023-07-29T14:31:39;1.92;;;1.40;;
37299;SDS011;23184;51.902;12.836;2023-07-29T14:34:05;3.15;;;1.60;;
37299;SDS011;23184;51.902;12.836;2023-07-29T14:36:30;3.40;;;1.50;;
37299;SDS011;23184;51.902;12.836;2023-07-29T14:38:56;2.17;;;1.80;;